Firmament Ace — C6VP5 — position and weather

sailwx.info

Track history (hours):
 
Tides and Currents Weather Stations Pressure Air Temp Water Temp Dewpoint Dewpoint Depression Visibility Wind Speed Wind Dir Waves Ship Positions

Firmament Ace

Last reported at 2018-Jul-07 03:47 UTC. Time now 2018-Jul-16 02:48 UTC.
Position N 14°06' W 060°50'.
Warning: this ship's position is 8 days out of date.

Length 200 m; beam 32.3 m.

Type: Cargo ship. MMSI: 309656000.

Date/timePositionNaut miles runAvg speedWind from/ knotsBaromVisibWave heightAir tempDewpointWater temp
2018-Jul-07 03:47N 14°06' W 060°50'410.2
2018-Jul-07 03:26N 14°07' W 060°53'510.5
2018-Jul-07 03:00N 14°08' W 060°58'510.2
2018-Jul-07 02:30N 14°04' W 061°01'2 0.3
2018-Jul-06 18:10N 14°02' W 061°02'1 3.2
2018-Jul-06 17:43N 14°03' W 061°02'315.3
2018-Jul-06 17:30N 14°07' W 061°03'1019.5
2018-Jul-06 17:00N 14°16' W 061°05'1019.4
2018-Jul-06 16:30N 14°26' W 061°07'816.4
2018-Jul-06 16:01N 14°34' W 061°06'3 6.7
2018-Jul-06 15:30N 14°36' W 061°04'0 0.1
2018-Jul-06 14:15N 14°36' W 061°04'0 0.0
2018-Jul-06 14:00N 14°36' W 061°04'0 0.0
2018-Jul-06 13:24N 14°36' W 061°04'0 0.0
2018-Jul-06 09:43N 14°36' W 061°04'1 2.9
2018-Jul-06 09:30N 14°35' W 061°04'3 5.3
2018-Jul-06 09:00N 14°35' W 061°07'4 8.1
2018-Jul-06 08:30N 14°37' W 061°11'510.8
2018-Jul-06 08:00N 14°37' W 061°16'612.7
2018-Jul-06 07:30N 14°38' W 061°22'714.5
2018-Jul-06 07:00N 14°39' W 061°30'1 0.2
2018-Jul-06 01:55N 14°40' W 061°30'1 1.4
2018-Jul-06 01:30N 14°40' W 061°30'1 1.3
2018-Jul-06 00:23N 14°40' W 061°28'2 1.3
2018-Jul-05 23:05N 14°40' W 061°26'0 1.1
2018-Jul-05 22:53N 14°40' W 061°26'0 1.2
2018-Jul-05 22:30N 14°40' W 061°26'1 1.1
2018-Jul-05 22:01N 14°40' W 061°25'1 1.2
2018-Jul-05 21:30N 14°40' W 061°25'0 0.9
2018-Jul-05 21:00N 14°40' W 061°24'1 1.3
2018-Jul-05 20:26N 14°40' W 061°23'2 5.8
2018-Jul-05 20:01N 14°41' W 061°21'4 6.9
2018-Jul-05 19:29N 14°39' W 061°18'611.8
2018-Jul-05 19:00N 14°39' W 061°23'811.2
2018-Jul-05 18:19N 14°45' W 061°29'  
2018-Jul-02 08:57N 17°12' W 062°54'3 0.7
2018-Jul-02 04:16N 17°10' W 062°57'0 1.2
2018-Jul-02 04:00N 17°10' W 062°56'2 1.2
2018-Jul-02 02:17N 17°11' W 062°54'1 1.4
2018-Jul-02 01:51N 17°11' W 062°53'3 0.5
2018-Jul-01 20:25N 17°11' W 062°56'1 1.3
2018-Jul-01 19:26N 17°11' W 062°55'1 1.2
2018-Jul-01 18:55N 17°11' W 062°54'0 1.1
2018-Jul-01 18:29N 17°11' W 062°54'1 1.2
2018-Jul-01 18:00N 17°11' W 062°53'50 2.5
2018-Jun-30 22:23N 16°57' W 063°43'  
Track history (hours):
 
Tides and Currents Weather Stations Pressure Air Temp Water Temp Dewpoint Dewpoint Depression Visibility Wind Speed Wind Dir Waves Ship Positions

Firmament Ace

Last reported at 2018-Jul-07 03:47 UTC. Time now 2018-Jul-16 02:48 UTC.
Position N 14°06' W 060°50'.
Warning: this ship's position is 8 days out of date.

Length 200 m; beam 32.3 m.

Type: Cargo ship. MMSI: 309656000.

Date/timePositionNaut miles runAvg speedWind from/ knotsBaromVisibWave heightAir tempDewpointWater temp
2018-Jul-07 03:47N 14°06' W 060°50'410.2
2018-Jul-07 03:26N 14°07' W 060°53'510.5
2018-Jul-07 03:00N 14°08' W 060°58'510.2
2018-Jul-07 02:30N 14°04' W 061°01'2 0.3
2018-Jul-06 18:10N 14°02' W 061°02'1 3.2
2018-Jul-06 17:43N 14°03' W 061°02'315.3
2018-Jul-06 17:30N 14°07' W 061°03'1019.5
2018-Jul-06 17:00N 14°16' W 061°05'1019.4
2018-Jul-06 16:30N 14°26' W 061°07'816.4
2018-Jul-06 16:01N 14°34' W 061°06'3 6.7
2018-Jul-06 15:30N 14°36' W 061°04'0 0.1
2018-Jul-06 14:15N 14°36' W 061°04'0 0.0
2018-Jul-06 14:00N 14°36' W 061°04'0 0.0
2018-Jul-06 13:24N 14°36' W 061°04'0 0.0
2018-Jul-06 09:43N 14°36' W 061°04'1 2.9
2018-Jul-06 09:30N 14°35' W 061°04'3 5.3
2018-Jul-06 09:00N 14°35' W 061°07'4 8.1
2018-Jul-06 08:30N 14°37' W 061°11'510.8
2018-Jul-06 08:00N 14°37' W 061°16'612.7
2018-Jul-06 07:30N 14°38' W 061°22'714.5
2018-Jul-06 07:00N 14°39' W 061°30'1 0.2
2018-Jul-06 01:55N 14°40' W 061°30'1 1.4
2018-Jul-06 01:30N 14°40' W 061°30'1 1.3
2018-Jul-06 00:23N 14°40' W 061°28'2 1.3
2018-Jul-05 23:05N 14°40' W 061°26'0 1.1
2018-Jul-05 22:53N 14°40' W 061°26'0 1.2
2018-Jul-05 22:30N 14°40' W 061°26'1 1.1
2018-Jul-05 22:01N 14°40' W 061°25'1 1.2
2018-Jul-05 21:30N 14°40' W 061°25'0 0.9
2018-Jul-05 21:00N 14°40' W 061°24'1 1.3
2018-Jul-05 20:26N 14°40' W 061°23'2 5.8
2018-Jul-05 20:01N 14°41' W 061°21'4 6.9
2018-Jul-05 19:29N 14°39' W 061°18'611.8
2018-Jul-05 19:00N 14°39' W 061°23'811.2
2018-Jul-05 18:19N 14°45' W 061°29'  
2018-Jul-02 08:57N 17°12' W 062°54'3 0.7
2018-Jul-02 04:16N 17°10' W 062°57'0 1.2
2018-Jul-02 04:00N 17°10' W 062°56'2 1.2
2018-Jul-02 02:17N 17°11' W 062°54'1 1.4
2018-Jul-02 01:51N 17°11' W 062°53'3 0.5
2018-Jul-01 20:25N 17°11' W 062°56'1 1.3
2018-Jul-01 19:26N 17°11' W 062°55'1 1.2
2018-Jul-01 18:55N 17°11' W 062°54'0 1.1
2018-Jul-01 18:29N 17°11' W 062°54'1 1.2
2018-Jul-01 18:00N 17°11' W 062°53'50 2.5
2018-Jun-30 22:23N 16°57' W 063°43'  

Dump ship's entire track history